Time;durP1;ratioP1;P1;durP2;ratioP2;P2;SDS_P1;SDS_P2;PMS_P1;PMS_P2;Temp;Humidity;BMP_temperature;BMP_pressure;BME280_temperature;BME280_humidity;BME280_pressure;Samples;Min_cycle;Max_cycle;Signal;HPM_P1;HPM_P2
2024/03/21 00:02:06;;;;;;;9.05;4.00;;;;;;;32.59;28.29;100593.34;7399499;19;20473;-48
2024/03/21 00:04:32;;;;;;;8.98;3.88;;;;;;;32.70;28.52;100592.66;7397062;19;20036;-48
2024/03/21 00:07:02;;;;;;;12.27;4.95;;;;;;;32.60;28.48;100594.84;7397221;19;20031;-48
2024/03/21 00:09:29;;;;;;;18.90;6.15;;;;;;;32.82;28.71;100598.56;7395692;19;20482;-48
2024/03/21 00:11:55;;;;;;;11.35;3.35;;;;;;;32.76;28.61;100595.25;7396119;19;20014;-48
2024/03/21 00:14:21;;;;;;;9.50;4.88;;;;;;;32.53;28.64;100595.78;7398895;19;20018;-48
2024/03/21 00:16:48;;;;;;;22.23;5.82;;;;;;;32.88;28.52;100590.31;7395476;19;20014;-48
2024/03/21 00:19:15;;;;;;;14.43;3.70;;;;;;;32.85;28.51;100585.78;7396169;19;20363;-48
2024/03/21 00:21:41;;;;;;;6.32;2.22;;;;;;;33.18;28.31;100585.94;7396495;19;20014;-48
2024/03/21 00:24:07;;;;;;;16.92;3.97;;;;;;;33.20;28.37;100581.03;7396054;19;20014;-48
2024/03/21 00:26:33;;;;;;;15.70;4.90;;;;;;;33.01;28.31;100581.16;7399603;19;20015;-48
2024/03/21 00:29:00;;;;;;;12.10;3.65;;;;;;;32.95;28.06;100579.94;7395902;19;20037;-48
2024/03/21 00:31:26;;;;;;;11.93;4.03;;;;;;;32.85;28.42;100585.78;7397989;19;20038;-48
2024/03/21 00:33:52;;;;;;;9.40;3.17;;;;;;;33.15;28.25;100573.47;7395311;19;20015;-48
2024/03/21 00:36:18;;;;;;;13.20;3.28;;;;;;;32.88;28.66;100573.75;7395036;19;20018;-48
2024/03/21 00:38:44;;;;;;;16.83;3.50;;;;;;;32.90;28.39;100582.56;7399149;19;20006;-48
2024/03/21 00:41:10;;;;;;;11.30;2.40;;;;;;;32.91;28.55;100583.31;7395905;19;20027;-48
2024/03/21 00:43:36;;;;;;;23.83;4.38;;;;;;;33.43;27.91;100586.19;7396550;19;20020;-48
2024/03/21 00:46:02;;;;;;;12.38;3.28;;;;;;;33.57;27.92;100587.16;7395228;19;20010;-48
2024/03/21 00:48:29;;;;;;;9.02;2.88;;;;;;;33.88;27.71;100587.03;7395876;19;20011;-48
2024/03/21 00:50:55;;;;;;;13.73;3.22;;;;;;;33.10;27.91;100582.47;7396971;19;20049;-48
2024/03/21 00:53:21;;;;;;;6.60;2.83;;;;;;;32.72;28.39;100589.97;7393113;19;20014;-48
2024/03/21 00:55:47;;;;;;;11.40;3.75;;;;;;;32.80;28.36;100584.75;7390623;19;20015;-48
2024/03/21 00:58:14;;;;;;;11.23;4.07;;;;;;;32.81;28.60;100574.69;7389745;19;20014;-47
2024/03/21 01:00:41;;;;;;;14.85;3.55;;;;;;;32.77;28.67;100571.53;7392024;19;20478;-48
2024/03/21 01:03:10;;;;;;;13.07;3.17;;;;;;;32.94;28.42;100575.56;7388618;19;20051;-48
2024/03/21 01:05:36;;;;;;;7.68;2.92;;;;;;;33.46;28.08;100576.28;7391695;19;20018;-48
2024/03/21 01:08:03;;;;;;;5.65;2.75;;;;;;;33.23;27.85;100584.81;7394167;19;20021;-48
2024/03/21 01:10:29;;;;;;;26.85;3.08;;;;;;;32.83;28.22;100571.94;7394514;19;20015;-48
2024/03/21 01:12:55;;;;;;;7.22;3.45;;;;;;;32.70;28.60;100584.00;7394352;19;20473;-48
2024/03/21 01:15:22;;;;;;;9.43;2.83;;;;;;;32.78;28.49;100581.72;7395522;19;20031;-48
2024/03/21 01:17:49;;;;;;;10.27;2.45;;;;;;;32.73;28.31;100588.56;7393493;19;20011;-48
2024/03/21 01:20:15;;;;;;;18.10;4.95;;;;;;;32.99;28.31;100583.09;7392070;19;20018;-48
2024/03/21 01:22:41;;;;;;;15.93;3.83;;;;;;;32.80;28.04;100573.19;7398451;19;20014;-48
2024/03/21 01:25:07;;;;;;;13.80;3.63;;;;;;;33.02;28.20;100579.03;7394848;19;20014;-48
2024/03/21 01:27:33;;;;;;;9.52;3.60;;;;;;;32.95;28.31;100577.06;7394783;19;20355;-48
2024/03/21 01:29:59;;;;;;;11.30;3.33;;;;;;;32.43;28.68;100563.31;7394625;19;20014;-48
2024/03/21 01:32:25;;;;;;;11.90;3.97;;;;;;;32.69;28.52;100562.31;7396876;19;20018;-48
2024/03/21 01:34:51;;;;;;;18.10;6.82;;;;;;;32.39;28.94;100563.03;7394394;19;20368;-48
2024/03/21 01:37:18;;;;;;;12.60;3.08;;;;;;;32.55;28.57;100563.47;7391202;19;20003;-47
2024/03/21 01:39:44;;;;;;;16.05;3.75;;;;;;;32.61;28.65;100550.22;7393541;19;20502;-47
2024/03/21 01:42:18;;;;;;;14.73;4.05;;;;;;;32.55;28.61;100546.88;7391351;19;20022;-48
2024/03/21 01:45:05;;;;;;;24.50;5.57;;;;;;;32.68;28.54;100543.47;7396608;19;20010;-48
2024/03/21 01:47:34;;;;;;;10.30;4.65;;;;;;;32.29;28.61;100545.03;7393828;19;20019;-48
2024/03/21 01:50:02;;;;;;;26.20;5.63;;;;;;;32.33;28.66;100535.88;7394170;19;20025;-48
2024/03/21 01:52:28;;;;;;;10.93;3.35;;;;;;;32.24;28.72;100542.44;7393725;19;20021;-48
2024/03/21 01:54:56;;;;;;;18.55;4.70;;;;;;;32.25;28.75;100538.94;7397437;19;20014;-48
2024/03/21 01:57:24;;;;;;;16.70;5.30;;;;;;;32.87;28.63;100549.16;7391652;19;20010;-48
2024/03/21 01:59:52;;;;;;;14.18;3.35;;;;;;;32.95;28.21;100542.41;7392198;19;20011;-48
2024/03/21 02:02:18;;;;;;;13.38;3.72;;;;;;;32.63;28.52;100541.72;7393779;19;20018;-48
2024/03/21 02:04:44;;;;;;;19.27;3.90;;;;;;;32.88;27.73;100544.91;7393244;19;20014;-47
2024/03/21 02:07:15;;;;;;;13.07;3.42;;;;;;;32.68;28.39;100548.53;7393467;19;20062;-49
2024/03/21 02:09:41;;;;;;;14.57;4.90;;;;;;;32.45;28.62;100554.03;7391432;19;20014;-47
2024/03/21 02:12:08;;;;;;;17.65;4.53;;;;;;;32.45;28.67;100557.69;7392425;19;20022;-48
2024/03/21 02:14:36;;;;;;;12.20;4.28;;;;;;;32.44;28.60;100558.31;7392966;19;20467;-48
2024/03/21 02:17:03;;;;;;;10.70;3.83;;;;;;;32.43;28.87;100556.78;7391975;19;20462;-48
2024/03/21 02:19:30;;;;;;;15.68;5.03;;;;;;;32.40;28.80;100558.75;7390386;19;20014;-48
2024/03/21 02:24:41;;;;;;;19.50;5.22;;;;;;;32.29;28.83;100539.25;7393599;19;20498;-48
2024/03/21 02:27:07;;;;;;;7.55;4.18;;;;;;;32.39;28.49;100548.63;7392492;19;20011;-48
2024/03/21 02:29:33;;;;;;;11.05;4.85;;;;;;;33.24;27.66;100558.22;7397419;19;20014;-48
2024/03/21 02:31:59;;;;;;;12.05;4.18;;;;;;;32.80;28.05;100550.13;7398977;19;20019;-48
2024/03/21 02:34:25;;;;;;;17.55;3.97;;;;;;;34.00;27.07;100545.22;7400396;19;20011;-48
2024/03/21 02:36:52;;;;;;;11.68;2.92;;;;;;;34.20;27.12;100551.56;7398888;19;20371;-48
2024/03/21 02:39:18;;;;;;;8.00;3.03;;;;;;;33.70;27.08;100563.47;7399718;19;20010;-48
2024/03/21 02:41:44;;;;;;;4.78;2.63;;;;;;;33.20;27.58;100554.31;7400136;19;20021;-48
2024/03/21 02:44:10;;;;;;;11.88;3.60;;;;;;;32.88;27.27;100552.78;7399778;19;20002;-48
2024/03/21 02:46:38;;;;;;;17.20;4.30;;;;;;;33.38;27.18;100561.28;7399758;19;20468;-48
2024/03/21 02:49:04;;;;;;;3.35;1.58;;;;;;;32.92;27.50;100568.25;7401687;19;20018;-48
2024/03/21 02:51:30;;;;;;;20.75;3.85;;;;;;;33.01;27.77;100569.59;7399103;19;20355;-48
2024/03/21 02:53:56;;;;;;;10.18;4.10;;;;;;;33.42;27.38;100555.78;7402244;19;20014;-48
2024/03/21 02:56:22;;;;;;;8.10;3.67;;;;;;;34.49;26.54;100557.78;7399105;19;20462;-48
2024/03/21 02:58:49;;;;;;;8.80;1.80;;;;;;;34.51;26.54;100551.38;7401116;19;20009;-48
2024/03/21 03:01:15;;;;;;;7.65;2.13;;;;;;;34.35;26.35;100551.84;7400983;19;20040;-48
2024/03/21 03:03:41;;;;;;;7.88;2.22;;;;;;;34.35;26.54;100551.84;7399258;19;20078;-48
2024/03/21 03:06:08;;;;;;;9.57;2.17;;;;;;;33.78;27.29;100543.78;7398704;19;20014;-48
2024/03/21 03:08:34;;;;;;;10.48;2.42;;;;;;;33.41;27.31;100548.50;7400024;19;20028;-48
2024/03/21 03:11:01;;;;;;;12.23;3.25;;;;;;;33.45;27.33;100554.56;7398471;19;20011;-48
2024/03/21 03:13:28;;;;;;;9.52;3.50;;;;;;;33.11;27.75;100549.34;7398562;19;20032;-48
2024/03/21 03:15:54;;;;;;;3.50;1.48;;;;;;;32.81;28.20;100551.63;7399311;19;20347;-48
2024/03/21 03:18:20;;;;;;;16.45;3.15;;;;;;;33.20;27.75;100552.16;7395962;19;20636;-48
2024/03/21 03:20:46;;;;;;;11.88;4.10;;;;;;;33.04;27.77;100556.84;7396725;19;20424;-48
2024/03/21 03:23:12;;;;;;;15.43;3.55;;;;;;;32.73;27.94;100538.75;7398137;19;20015;-48
2024/03/21 03:25:42;;;;;;;17.60;4.43;;;;;;;32.29;27.69;100547.91;7398565;19;20066;-48
2024/03/21 03:28:08;;;;;;;10.60;4.22;;;;;;;33.28;27.50;100541.16;7398857;19;20383;-48
2024/03/21 03:30:35;;;;;;;12.32;3.53;;;;;;;33.36;27.24;100546.72;7398553;19;20011;-48
2024/03/21 03:35:46;;;;;;;13.50;2.58;;;;;;;33.46;27.35;100547.41;7398254;19;20014;-48
2024/03/21 03:38:15;;;;;;;11.20;3.97;;;;;;;32.74;27.74;100546.81;7395424;19;20037;-48
2024/03/21 03:40:42;;;;;;;8.70;2.95;;;;;;;33.54;27.11;100528.50;7397142;19;20359;-48
2024/03/21 03:43:08;;;;;;;8.00;3.10;;;;;;;33.68;26.98;100533.72;7397360;19;20010;-48
2024/03/21 03:45:34;;;;;;;21.10;4.75;;;;;;;33.56;27.06;100537.31;7397403;19;20021;-48
2024/03/21 03:48:00;;;;;;;17.13;4.50;;;;;;;33.52;26.81;100536.28;7396659;19;20070;-48
2024/03/21 03:50:26;;;;;;;31.15;4.85;;;;;;;33.27;27.30;100539.63;7397095;19;20018;-48
2024/03/21 03:52:52;;;;;;;8.02;4.28;;;;;;;33.83;26.90;100539.78;7398408;19;20013;-48
2024/03/21 03:55:18;;;;;;;11.70;2.60;;;;;;;34.03;26.48;100537.47;7402076;19;20031;-48
2024/03/21 03:57:44;;;;;;;14.82;3.13;;;;;;;34.34;26.32;100535.91;7395776;19;20493;-47
2024/03/21 04:00:11;;;;;;;20.70;3.40;;;;;;;34.30;26.53;100526.19;7397672;19;20011;-47
2024/03/21 04:02:43;;;;;;;13.05;3.85;;;;;;;33.37;27.04;100549.00;7400923;19;20347;-47
2024/03/21 04:05:10;;;;;;;8.95;3.75;;;;;;;32.78;27.20;100547.09;7395416;19;20018;-47
2024/03/21 04:07:37;;;;;;;8.32;3.40;;;;;;;32.60;27.84;100554.47;7397105;19;20006;-47
2024/03/21 04:10:05;;;;;;;10.65;2.63;;;;;;;32.02;28.03;100559.66;7396367;19;20018;-47
2024/03/21 04:12:32;;;;;;;17.17;4.30;;;;;;;31.76;28.13;100563.47;7397085;19;20010;-48
2024/03/21 04:14:58;;;;;;;13.68;2.60;;;;;;;31.62;28.77;100564.53;7396230;19;20028;-48
2024/03/21 04:17:24;;;;;;;8.32;3.63;;;;;;;31.02;28.95;100563.53;7395809;19;20070;-48
2024/03/21 04:19:50;;;;;;;19.13;4.18;;;;;;;30.29;29.61;100568.50;7396637;19;20011;-48
2024/03/21 04:22:17;;;;;;;5.97;2.63;;;;;;;31.61;28.82;100571.66;7396927;19;20014;-48
2024/03/21 04:24:43;;;;;;;10.82;2.90;;;;;;;31.90;28.44;100572.41;7396075;19;20014;-48
2024/03/21 04:27:09;;;;;;;23.70;5.97;;;;;;;30.82;29.48;100579.22;7396183;19;20017;-48
2024/03/21 04:29:35;;;;;;;9.02;2.65;;;;;;;31.75;28.78;100581.34;7395491;19;20018;-48
2024/03/21 04:32:01;;;;;;;9.10;2.42;;;;;;;31.87;28.67;100571.47;7398755;19;20015;-48
2024/03/21 04:34:28;;;;;;;15.13;3.88;;;;;;;32.06;28.21;100567.81;7400726;19;20015;-48
2024/03/21 04:36:54;;;;;;;9.57;2.92;;;;;;;31.98;28.65;100565.13;7396165;19;20447;-48
2024/03/21 04:39:20;;;;;;;11.32;3.72;;;;;;;31.74;28.67;100585.59;7396227;19;20003;-48
2024/03/21 04:41:46;;;;;;;7.47;3.30;;;;;;;31.39;28.82;100574.34;7395406;19;20011;-48
2024/03/21 04:44:12;;;;;;;9.63;3.00;;;;;;;31.46;28.92;100577.72;7400031;19;20038;-47
2024/03/21 04:46:38;;;;;;;20.00;4.03;;;;;;;31.45;28.93;100593.50;7395845;19;20085;-48
2024/03/21 04:49:04;;;;;;;3.83;2.50;;;;;;;31.75;28.81;100581.34;7394621;19;20007;-48
2024/03/21 04:51:30;;;;;;;11.75;3.35;;;;;;;31.79;29.01;100576.66;7393479;19;20015;-48
2024/03/21 04:53:56;;;;;;;11.20;3.72;;;;;;;31.80;28.84;100577.41;7395781;19;20411;-48
2024/03/21 04:56:22;;;;;;;13.77;2.55;;;;;;;31.40;29.00;100570.13;7394146;19;20018;-48
2024/03/21 04:58:51;;;;;;;15.00;4.88;;;;;;;31.71;28.74;100563.75;7394406;19;20011;-48
2024/03/21 05:01:17;;;;;;;8.88;3.85;;;;;;;31.55;28.97;100574.06;7395789;19;20019;-48
2024/03/21 05:03:43;;;;;;;20.40;3.40;;;;;;;31.96;28.51;100567.09;7398278;19;20395;-48
2024/03/21 05:06:09;;;;;;;6.93;2.40;;;;;;;32.06;28.33;100565.72;7395515;19;20018;-48
2024/03/21 05:08:35;;;;;;;21.45;5.30;;;;;;;32.37;28.29;100554.25;7394240;19;20015;-47
2024/03/21 05:11:02;;;;;;;8.82;3.83;;;;;;;33.30;27.27;100563.63;7394781;19;20015;-47
2024/03/21 05:13:28;;;;;;;13.15;4.55;;;;;;;33.26;27.38;100557.59;7397562;19;20077;-48
2024/03/21 05:15:54;;;;;;;14.80;4.07;;;;;;;33.26;27.45;100567.03;7394418;19;20026;-47
2024/03/21 05:18:20;;;;;;;18.95;4.20;;;;;;;32.55;28.12;100557.69;7392561;19;20015;-47
2024/03/21 05:20:46;;;;;;;21.80;3.10;;;;;;;32.08;28.66;100547.78;7393689;19;20767;-47
2024/03/21 05:23:12;;;;;;;12.90;3.75;;;;;;;31.95;28.55;100539.63;7395753;19;20011;-47
2024/03/21 05:25:39;;;;;;;19.83;5.15;;;;;;;31.88;28.55;100552.81;7392619;19;20046;-48
2024/03/21 05:28:05;;;;;;;13.55;3.30;;;;;;;31.90;28.36;100534.94;7394060;19;20017;-48
2024/03/21 05:30:31;;;;;;;6.28;3.03;;;;;;;31.82;28.57;100528.56;7394190;19;20014;-48
2024/03/21 05:32:57;;;;;;;7.90;3.00;;;;;;;31.86;28.50;100537.53;7397911;19;20530;-48
2024/03/21 05:35:23;;;;;;;21.38;5.55;;;;;;;31.86;28.59;100534.66;7393132;19;20374;-48
2024/03/21 05:37:50;;;;;;;18.63;4.07;;;;;;;31.81;28.39;100550.09;7392846;19;20025;-48
2024/03/21 05:40:16;;;;;;;14.93;5.85;;;;;;;30.97;29.67;100545.19;7394051;19;20078;-48
2024/03/21 05:42:47;;;;;;;10.70;2.67;;;;;;;31.26;29.10;100548.88;7395152;19;20010;-48
2024/03/21 05:45:13;;;;;;;20.88;3.38;;;;;;;31.46;29.13;100543.16;7393626;19;20011;-48
2024/03/21 05:47:39;;;;;;;10.45;3.55;;;;;;;30.63;30.00;100539.63;7393847;19;20008;-48
2024/03/21 05:50:07;;;;;;;12.82;4.75;;;;;;;30.85;29.40;100538.50;7394057;19;20032;-48
2024/03/21 05:52:33;;;;;;;12.05;3.33;;;;;;;30.41;29.92;100535.00;7393604;19;20006;-48
2024/03/21 05:55:01;;;;;;;16.65;2.92;;;;;;;29.96;29.98;100547.91;7397602;19;20014;-47
2024/03/21 05:57:27;;;;;;;18.65;4.10;;;;;;;30.87;29.65;100541.53;7392213;19;20015;-47
2024/03/21 05:59:54;;;;;;;6.40;2.67;;;;;;;30.45;30.03;100529.59;7393554;19;20010;-48
2024/03/21 06:02:21;;;;;;;17.98;3.13;;;;;;;30.76;29.54;100542.09;7396066;19;20014;-48
2024/03/21 06:04:48;;;;;;;28.00;3.08;;;;;;;30.28;30.01;100538.25;7392683;19;20353;-48
2024/03/21 06:07:14;;;;;;;10.43;2.85;;;;;;;30.30;30.27;100542.03;7398692;19;20010;-48
2024/03/21 06:09:40;;;;;;;15.60;4.03;;;;;;;31.10;29.49;100544.03;7400230;19;20026;-48
2024/03/21 06:12:06;;;;;;;20.73;4.10;;;;;;;31.31;29.48;100550.72;7401075;19;20074;-48
2024/03/21 06:14:33;;;;;;;14.00;3.58;;;;;;;31.39;29.39;100551.31;7401405;19;20540;-48
2024/03/21 06:17:00;;;;;;;17.85;3.85;;;;;;;32.18;28.51;100545.66;7399703;19;20355;-48
2024/03/21 06:19:26;;;;;;;24.58;4.47;;;;;;;32.91;28.09;100551.56;7399497;19;20347;-48
2024/03/21 06:21:53;;;;;;;4.63;2.55;;;;;;;32.94;27.84;100540.94;7400069;19;20367;-48
2024/03/21 06:24:20;;;;;;;6.72;1.73;;;;;;;32.94;28.12;100546.69;7405112;19;20014;-48
2024/03/21 06:26:46;;;;;;;7.32;3.40;;;;;;;33.01;27.79;100534.97;7400102;19;20022;-48
2024/03/21 06:29:12;;;;;;;15.05;3.08;;;;;;;32.92;27.84;100536.50;7398733;19;20410;-48
2024/03/21 06:31:38;;;;;;;17.00;3.00;;;;;;;32.45;28.62;100536.75;7402249;19;20006;-48
2024/03/21 06:34:04;;;;;;;15.43;3.53;;;;;;;31.75;28.68;100544.63;7401943;19;20010;-48
2024/03/21 06:36:30;;;;;;;16.80;3.55;;;;;;;31.19;29.35;100546.91;7398949;19;20015;-48
2024/03/21 06:38:58;;;;;;;21.33;3.63;;;;;;;30.75;29.50;100548.44;7400009;19;20475;-48
2024/03/21 06:41:24;;;;;;;3.72;2.55;;;;;;;31.26;29.27;100551.75;7399710;19;20356;-48
2024/03/21 06:43:50;;;;;;;19.88;3.38;;;;;;;31.56;28.75;100549.66;7403893;19;20015;-48
2024/03/21 06:46:16;;;;;;;6.47;2.88;;;;;;;31.44;28.78;100555.28;7399018;19;20383;-48
2024/03/21 06:48:43;;;;;;;9.02;4.07;;;;;;;31.03;29.78;100554.31;7399900;19;20442;-48
2024/03/21 06:51:09;;;;;;;7.95;2.80;;;;;;;30.85;29.66;100561.50;7398649;19;20021;-48
2024/03/21 06:53:35;;;;;;;6.03;2.30;;;;;;;31.42;29.19;100567.38;7401238;19;20014;-48
2024/03/21 06:56:02;;;;;;;5.43;2.42;;;;;;;31.62;29.07;100565.28;7402926;19;20037;-48
2024/03/21 06:58:30;;;;;;;17.25;3.08;;;;;;;32.02;29.10;100565.41;7397581;19;20031;-48
2024/03/21 07:00:56;;;;;;;7.43;2.65;;;;;;;31.83;28.95;100568.31;7399635;19;20018;-48
2024/03/21 07:03:22;;;;;;;9.35;3.67;;;;;;;31.89;29.39;100576.63;7399030;19;20094;-48
2024/03/21 07:05:49;;;;;;;27.75;3.17;;;;;;;31.65;29.41;100566.19;7397607;19;20435;-48
2024/03/21 07:08:15;;;;;;;8.77;1.80;;;;;;;31.54;29.53;100573.31;7402562;19;20017;-48
2024/03/21 07:10:41;;;;;;;7.43;2.47;;;;;;;31.70;29.03;100585.28;7399364;19;20474;-48
2024/03/21 07:13:07;;;;;;;8.43;2.10;;;;;;;31.19;29.41;100580.69;7398679;19;20014;-48
2024/03/21 07:15:33;;;;;;;9.48;4.50;;;;;;;30.59;30.39;100586.09;7398635;19;20011;-48
2024/03/21 07:17:59;;;;;;;4.10;2.65;;;;;;;30.33;30.36;100586.09;7396674;19;20010;-48
2024/03/21 07:20:25;;;;;;;8.23;2.78;;;;;;;30.18;31.08;100592.03;7398293;19;20473;-48
2024/03/21 07:22:52;;;;;;;13.40;3.15;;;;;;;30.64;30.23;100590.03;7398581;19;20066;-48
2024/03/21 07:25:18;;;;;;;9.20;3.22;;;;;;;30.52;30.39;100597.69;7397580;19;20038;-48
2024/03/21 07:27:44;;;;;;;14.52;3.33;;;;;;;30.73;30.25;100592.94;7397923;19;20011;-48
2024/03/21 07:30:13;;;;;;;13.70;3.50;;;;;;;29.36;31.87;100589.59;7396823;19;20013;-48
2024/03/21 07:32:39;;;;;;;15.07;2.72;;;;;;;30.21;31.12;100590.88;7400980;19;20011;-48
2024/03/21 07:35:05;;;;;;;8.50;1.83;;;;;;;30.14;30.93;100603.22;7398450;19;20014;-48
2024/03/21 07:37:32;;;;;;;6.78;3.28;;;;;;;30.08;30.57;100606.38;7397742;19;20014;-48
2024/03/21 07:40:02;;;;;;;5.10;2.20;;;;;;;29.73;31.22;100605.63;7398443;19;20006;-49
2024/03/21 07:42:28;;;;;;;10.68;2.90;;;;;;;28.93;31.73;100608.13;7399197;19;20014;-50
2024/03/21 07:44:54;;;;;;;5.97;2.10;;;;;;;28.98;31.52;100612.09;7396781;19;20003;-49
2024/03/21 07:47:21;;;;;;;9.55;3.15;;;;;;;29.33;31.75;100610.84;7397341;19;20018;-49
2024/03/21 07:49:48;;;;;;;7.35;4.03;;;;;;;29.64;31.52;100614.91;7397605;19;20015;-49
2024/03/21 07:52:14;;;;;;;8.73;2.00;;;;;;;30.66;30.55;100602.47;7397801;19;20399;-50
2024/03/21 07:54:40;;;;;;;8.95;2.03;;;;;;;31.70;29.82;100602.56;7401164;19;20077;-50
2024/03/21 07:57:06;;;;;;;11.40;2.28;;;;;;;32.45;28.85;100597.31;7395991;19;20477;-50
2024/03/21 07:59:32;;;;;;;8.20;2.17;;;;;;;31.98;29.06;100588.19;7395831;19;20018;-50
2024/03/21 08:01:59;;;;;;;7.30;2.20;;;;;;;31.89;29.46;100599.69;7397914;19;20033;-50
2024/03/21 08:04:25;;;;;;;8.98;3.10;;;;;;;31.80;29.38;100597.56;7400578;19;20006;-49
2024/03/21 08:06:51;;;;;;;3.75;1.83;;;;;;;31.67;30.21;100600.91;7397167;19;20455;-50
2024/03/21 08:09:17;;;;;;;8.20;2.20;;;;;;;31.88;29.81;100603.94;7396393;19;20010;-51
2024/03/21 08:11:43;;;;;;;3.50;1.77;;;;;;;32.00;29.45;100604.84;7396475;19;20351;-51
2024/03/21 08:14:09;;;;;;;9.02;2.05;;;;;;;31.92;29.63;100601.34;7400299;19;20021;-50
2024/03/21 08:16:36;;;;;;;8.88;3.50;;;;;;;32.25;29.43;100602.38;7395833;19;20007;-50
2024/03/21 08:19:02;;;;;;;8.90;2.85;;;;;;;31.97;29.64;100597.41;7396559;19;20014;-51
2024/03/21 08:21:28;;;;;;;3.25;1.05;;;;;;;30.86;30.62;100611.97;7396460;19;20015;-50
2024/03/21 08:23:54;;;;;;;5.53;1.65;;;;;;;30.53;30.54;100611.50;7399702;19;20406;-51
2024/03/21 08:26:20;;;;;;;4.63;1.52;;;;;;;31.43;30.15;100597.72;7394879;19;20033;-50
2024/03/21 08:28:46;;;;;;;7.07;1.70;;;;;;;30.71;30.70;100592.78;7394879;19;20070;-50
2024/03/21 08:31:12;;;;;;;2.88;1.95;;;;;;;30.68;30.94;100594.00;7397096;19;20042;-51
2024/03/21 08:33:38;;;;;;;6.50;2.15;;;;;;;30.74;30.56;100590.84;7399145;19;20388;-51
2024/03/21 08:36:04;;;;;;;4.47;1.77;;;;;;;30.86;30.88;100579.53;7395464;19;20017;-50
2024/03/21 08:38:31;;;;;;;6.75;2.85;;;;;;;30.70;30.74;100596.28;7391120;19;20486;-51
2024/03/21 08:40:57;;;;;;;2.47;1.10;;;;;;;30.58;30.90;100589.56;7395156;19;20010;-51
2024/03/21 08:43:24;;;;;;;10.00;2.30;;;;;;;30.28;30.83;100601.47;7398355;19;20023;-51
2024/03/21 08:45:52;;;;;;;5.93;1.90;;;;;;;30.10;31.10;100600.03;7393394;19;20011;-51
2024/03/21 08:48:18;;;;;;;7.22;2.17;;;;;;;30.14;31.11;100589.63;7394097;19;20010;-51
2024/03/21 08:50:47;;;;;;;4.13;1.65;;;;;;;30.15;31.32;100593.25;7396011;19;20455;-50
2024/03/21 08:53:15;;;;;;;4.38;1.60;;;;;;;30.71;30.16;100592.03;7396697;19;20078;-51
2024/03/21 08:55:41;;;;;;;4.97;1.58;;;;;;;30.62;30.62;100592.78;7395477;19;20011;-51
2024/03/21 08:58:07;;;;;;;6.63;2.25;;;;;;;30.48;30.55;100595.28;7393232;19;20013;-50
2024/03/21 09:00:34;;;;;;;3.35;1.15;;;;;;;30.02;31.19;100590.75;7394765;19;20055;-51
2024/03/21 09:03:01;;;;;;;3.05;1.83;;;;;;;31.13;30.02;100592.50;7397612;19;20014;-51
2024/03/21 09:05:27;;;;;;;2.20;1.40;;;;;;;30.53;30.43;100588.50;7395660;19;20013;-50
2024/03/21 09:07:54;;;;;;;8.25;1.40;;;;;;;30.97;30.07;100588.34;7394152;19;20006;-49
2024/03/21 09:10:20;;;;;;;2.15;1.08;;;;;;;31.17;30.01;100592.81;7394491;19;20014;-49
2024/03/21 09:12:46;;;;;;;2.95;0.85;;;;;;;31.27;29.88;100592.81;7394652;19;20006;-49
2024/03/21 09:15:14;;;;;;;1.17;0.65;;;;;;;31.42;29.56;100589.69;7395179;19;20018;-49
2024/03/21 09:17:41;;;;;;;3.05;1.23;;;;;;;31.28;30.13;100597.22;7393787;19;20013;-49
2024/03/21 09:20:08;;;;;;;4.13;1.33;;;;;;;31.42;29.91;100590.44;7394302;19;20531;-49
2024/03/21 09:22:35;;;;;;;7.13;1.38;;;;;;;30.68;30.23;100594.00;7394566;19;20018;-49
2024/03/21 09:25:02;;;;;;;11.70;1.42;;;;;;;30.31;30.67;100578.09;7393123;19;20026;-49
2024/03/21 09:27:29;;;;;;;1.10;0.52;;;;;;;30.12;31.21;100568.56;7394214;19;20222;-49
2024/03/21 09:29:55;;;;;;;5.75;0.98;;;;;;;30.13;31.16;100555.72;7391815;19;20090;-48
2024/03/21 09:32:21;;;;;;;1.25;0.43;;;;;;;29.85;31.55;100554.19;7396443;19;20379;-49
2024/03/21 09:34:51;;;;;;;1.75;0.65;;;;;;;30.62;30.85;100555.38;7394226;19;20382;-49
2024/03/21 09:37:23;;;;;;;1.23;0.60;;;;;;;31.94;29.42;100546.75;7393536;19;20011;-48
2024/03/21 09:39:50;;;;;;;4.30;0.82;;;;;;;32.94;28.74;100547.47;7393552;19;20355;-48
2024/03/21 09:42:20;;;;;;;1.15;1.00;;;;;;;33.12;28.06;100545.06;7391160;19;20017;-49
2024/03/21 09:44:48;;;;;;;3.20;0.82;;;;;;;33.16;28.48;100545.38;7393418;19;20014;-49
2024/03/21 09:47:23;;;;;;;4.57;1.02;;;;;;;32.08;29.21;100544.91;7392599;19;20037;-49
2024/03/21 09:49:49;;;;;;;1.65;0.88;;;;;;;32.07;29.77;100544.19;7393491;19;20018;-49
2024/03/21 09:52:16;;;;;;;1.55;1.20;;;;;;;32.96;29.29;100549.72;7393146;19;20011;-48
2024/03/21 09:54:43;;;;;;;2.17;1.15;;;;;;;33.33;28.13;100550.88;7396860;19;20018;-49
2024/03/21 09:57:12;;;;;;;1.27;0.82;;;;;;;33.58;28.06;100560.56;7392570;19;20006;-49
2024/03/21 09:59:39;;;;;;;0.40;0.40;;;;;;;35.12;26.66;100556.66;7393773;19;20068;-49
2024/03/21 10:02:13;;;;;;;1.10;0.70;;;;;;;35.82;26.74;100556.44;7395183;19;20437;-49
2024/03/21 10:04:44;;;;;;;3.03;0.63;;;;;;;36.06;26.33;100534.66;7393155;19;20027;-49
2024/03/21 10:07:20;;;;;;;6.43;0.63;;;;;;;36.08;26.27;100543.47;7392486;19;20070;-50
2024/03/21 10:09:56;;;;;;;10.65;1.13;;;;;;;35.88;26.55;100539.38;7392182;19;20082;-50
2024/03/21 10:12:24;;;;;;;1.27;0.57;;;;;;;35.84;26.37;100539.16;7390925;19;20108;-50
2024/03/21 10:14:56;;;;;;;4.18;0.60;;;;;;;35.97;26.39;100538.47;7393295;19;20101;-50
2024/03/21 10:17:26;;;;;;;1.25;0.52;;;;;;;35.94;26.34;100539.72;7390451;19;20010;-50
2024/03/21 10:19:53;;;;;;;1.55;0.73;;;;;;;35.49;26.47;100534.28;7393107;19;20018;-49
2024/03/21 10:22:24;;;;;;;0.43;0.32;;;;;;;35.86;26.52;100527.66;7392486;19;20359;-49
2024/03/21 10:24:55;;;;;;;0.28;0.13;;;;;;;36.15;25.72;100536.56;7393283;19;20010;-50
2024/03/21 10:27:24;;;;;;;;;;;;;;;36.38;25.73;100536.44;7393205;19;20483;-49
2024/03/21 10:29:50;;;;;;;2.28;0.40;;;;;;;36.10;25.75;100540.66;7391857;19;19915;-50
2024/03/21 10:32:21;;;;;;;2.25;0.82;;;;;;;36.13;26.30;100542.28;7393050;19;20019;-50
2024/03/21 10:34:49;;;;;;;0.15;0.15;;;;;;;36.03;26.16;100535.91;7392512;19;20010;-50
2024/03/21 10:37:26;;;;;;;0.20;0.20;;;;;;;35.94;26.25;100540.47;7391960;19;20021;-50
2024/03/21 10:39:54;;;;;;;1.05;0.60;;;;;;;35.30;26.90;100537.47;7392582;19;20014;-49
2024/03/21 10:42:28;;;;;;;3.80;0.88;;;;;;;35.51;26.59;100534.41;7391654;19;20011;-50
2024/03/21 10:44:59;;;;;;;6.80;1.45;;;;;;;35.42;26.40;100532.38;7392860;19;20406;-50
2024/03/21 10:47:26;;;;;;;1.13;0.52;;;;;;;34.48;26.65;100536.00;7392022;19;20082;-50
2024/03/21 10:49:54;;;;;;;0.40;0.32;;;;;;;34.43;26.96;100527.72;7391582;19;20014;-50
2024/03/21 10:52:20;;;;;;;1.67;0.65;;;;;;;34.06;26.81;100530.44;7393023;19;20011;-49
2024/03/21 10:54:54;;;;;;;1.10;0.20;;;;;;;33.79;27.37;100525.06;7402091;19;20018;-50
2024/03/21 10:57:25;;;;;;;0.20;0.20;;;;;;;33.32;27.95;100546.44;7399357;19;20435;-50
2024/03/21 10:59:58;;;;;;;1.70;0.55;;;;;;;32.58;28.54;100539.91;7399200;19;20037;-50
2024/03/21 11:02:29;;;;;;;6.78;0.57;;;;;;;32.18;28.41;100542.78;7402970;19;20015;-50
2024/03/21 11:04:55;;;;;;;0.20;0.20;;;;;;;31.00;29.34;100549.75;7398960;19;20011;-50
2024/03/21 11:07:22;;;;;;;2.13;0.40;;;;;;;30.77;29.64;100552.25;7398164;19;20019;-50
2024/03/21 11:09:49;;;;;;;0.85;0.38;;;;;;;31.25;29.61;100547.34;7401415;19;20024;-50
2024/03/21 11:12:16;;;;;;;1.90;0.30;;;;;;;30.91;30.55;100558.34;7398795;19;20014;-50
2024/03/21 11:14:44;;;;;;;4.10;0.73;;;;;;;31.58;29.70;100549.84;7398694;19;20010;-50
2024/03/21 11:17:13;;;;;;;0.10;0.08;;;;;;;32.75;28.63;100539.66;7397534;19;20022;-52
2024/03/21 11:19:39;;;;;;;0.73;0.57;;;;;;;31.80;29.18;100554.34;7396205;19;20013;-50
2024/03/21 11:22:10;;;;;;;2.83;0.52;;;;;;;31.26;29.57;100548.88;7401294;19;20006;-50
2024/03/21 11:24:36;;;;;;;0.70;0.50;;;;;;;32.43;28.29;100543.13;7397468;19;20443;-51
2024/03/21 11:27:05;;;;;;;1.45;0.63;;;;;;;31.75;28.36;100535.25;7398335;19;20478;-51